METAR AND TAF INFORMATION
METAR FOR EPZG
ADDS - METARS form results

(2221 UTC 18 October 2018)
Data provider http://aviationweather.gov/metar/data/
 
METAR text: EPZG 182200Z 32004KT 280V360 3000 BR OVC005 12/11 Q1022
Conditions at: EPZG (ZIELONA GORA , PL) observed 2200 UTC 18 October 2018
Temperature: 12.0°C (54°F)
Dewpoint: 11.0°C (52°F) [RH = 94%]
Pressure (altimeter): 30.18 inches Hg (1022.0 mb)
Winds: from the NW (320 degrees) at 5 MPH (4 knots; 2.1 m/s)
Visibility: 1.86 miles (2.99 km)
Ceiling: 500 feet AGL
Clouds: overcast cloud deck at 500 feet AGL
Weather: BR  (mist)

METAR text: EPZG 182130Z 32007KT 290V350 3000 BR BKN006 12/11 Q1022
Conditions at: EPZG (ZIELONA GORA , PL) observed 2130 UTC 18 October 2018
Temperature: 12.0°C (54°F)
Dewpoint: 11.0°C (52°F) [RH = 94%]
Pressure (altimeter): 30.18 inches Hg (1022.0 mb)
Winds: from the NW (320 degrees) at 8 MPH (7 knots; 3.6 m/s)
Visibility: 1.86 miles (2.99 km)
Ceiling: 600 feet AGL
Clouds: broken clouds at 600 feet AGL
Weather: BR  (mist)

Forecast for: EPZG (ZIELONA GORA , PL)
Text: TAF EPZG 182030Z 1821/1906 33004KT 8000 NSC
Forecast period: 2100 to 2200 UTC 18 October 2018
Forecast type: FROM: standard forecast or significant change
Winds: from the NNW (330 degrees) at 5 MPH (4 knots; 2.1 m/s)
Visibility: 5 miles (8 km)
Ceiling: unknown
Clouds: missing
Weather: no significant weather forecast for this period
Text: BECMG 1822/1824 2500 BR BKN004
Forecast period: 2200 UTC 18 October 2018 to 0600 UTC 19 October 2018
Forecast type: BECOMING: Conditions expected to become as follows by 0000 UTC 19 October 2018
Winds: from the NNW (330 degrees) at 5 MPH (4 knots; 2.1 m/s)
Visibility: 1.55 miles (2.49 km)
Ceiling: 400 feet AGL
Clouds: broken clouds at 400 feet AGL
Weather: BR  (mist)
Text: PROB40
Forecast period: 0000 to 0600 UTC 19 October 2018
Forecast type: TEMPORARY: The following changes expected for less than half the time period
Visibility: 0.31 miles (0.50 km)
Ceiling: 100 feet AGL
Clouds: overcast cloud deck at 100 feet AGL
Weather: FG  (fog)

 AIRPORT MAP

 RUNWAY INFORMATION
Runway 06 Runway length 8202 ft Runway width 197 ft
Runway elevation 194 ft Runway displaced threshold 0 ft Runway heading 65
Runway 24 Runway length 8202 ft Runway width 197 ft
Runway elevation 187 ft Runway displaced threshold 0 ft Runway heading 245

 AIRPORT FREQUENCIES
Type TWR Name TWR Frequency 118.75 MHZ

 AIRPORT NEAR NAVIGATION AIDS
Type NDB Name Babimost Frequency 390 KHZ



Powered by Virtual Airlines Manager [v2.6.1]